map of MJX home
MJX - Airport
Location
City:  Toms River, New Jersey, United States
Name:Ocean County Airport
ICAO:KMJX
IATA:MJX
FAA LID:MJX

Details
Type:Airport (Airfield)
Use:Public/Civil
Latitude:3955'34"N (39.926042)
Longitude:7417'44"W (-74.295532)
Datum:WGS 1984
Elevation:86 ft (26 m)
Variation:12.45W (WMM2015v2 magnetic declination)
0.04 annual change
Runways:2
Longest:5950 × 100 ft (1814 × 30.5 m), paved

Time
Time Zone:UTC-5 (DST-4)
Local Time:

Weather
METAR:KMJX 041356Z AUTO 00000KT M1/4SM FG OVC002 02/01 A3011 RMK AO2 SLP204 T00170011 FZRANO

Related Locations
Nearby:
Farthest:YAUG: 11790 mi / 18974 km
Augusta [Augusta Airport], WA, AU

Find:

   beyond  
but within

Other Information
Maps:
NOTAMs:
Links:
Sources:

  
  • flag of United States
  • flag of New Jersey
  

Sectional Chart

Flight Planning
at skyvector.com

Satellite Image

Google Maps Satellite view

 

Copyright © 2004-2019 Karl L. Swartz. All rights reserved.
The Great Circle Mapper name and logo are trademarks of the Great Circle Mapper.
All other trademarks mentioned herein belong to their respective owners.
Please see credits for attibutions and further copyright information.

  Follow gcmap on Facebook Follow gcmap on Twitter GCmap on LinkedIn

hCard Microformat

Geo Microformat